createdAt,value
2022-07-26T00:00:10.614Z,17.19
2022-07-26T00:01:10.673Z,17.12
2022-07-26T00:02:13.128Z,17.09
2022-07-26T00:03:11.593Z,17.15
2022-07-26T00:04:10.593Z,17.01
2022-07-26T00:05:10.592Z,17.04
2022-07-26T00:06:10.567Z,17.01
2022-07-26T00:07:10.571Z,16.93
2022-07-26T00:08:10.674Z,16.91
2022-07-26T00:09:11.198Z,16.93
2022-07-26T00:10:10.557Z,16.94
2022-07-26T00:11:10.533Z,16.89
2022-07-26T00:12:10.519Z,16.94
2022-07-26T00:13:10.516Z,16.91
2022-07-26T00:14:10.562Z,16.93
2022-07-26T00:15:10.511Z,16.91
2022-07-26T00:16:10.584Z,16.90
2022-07-26T00:17:10.504Z,16.86
2022-07-26T00:18:11.919Z,16.83
2022-07-26T00:19:10.862Z,16.79
2022-07-26T00:20:10.462Z,16.83
2022-07-26T00:21:10.450Z,16.79
2022-07-26T00:22:10.446Z,16.75
2022-07-26T00:23:10.438Z,16.74
2022-07-26T00:24:10.425Z,16.74
2022-07-26T00:25:10.582Z,16.72
2022-07-26T00:26:10.413Z,16.69
2022-07-26T00:27:10.410Z,16.61
2022-07-26T00:28:10.397Z,16.68
2022-07-26T00:29:10.947Z,16.64
2022-07-26T00:30:10.409Z,16.56
2022-07-26T00:31:10.481Z,16.60
2022-07-26T00:33:10.200Z,16.51
2022-07-26T00:34:10.188Z,16.50
2022-07-26T00:35:10.192Z,16.53
2022-07-26T00:36:11.268Z,16.51
2022-07-26T00:37:11.287Z,16.47
2022-07-26T00:38:11.249Z,16.46
2022-07-26T00:39:11.650Z,16.50
2022-07-26T00:40:11.232Z,16.58
2022-07-26T00:41:11.224Z,16.56
2022-07-26T00:42:11.217Z,16.47
2022-07-26T00:43:11.200Z,16.46
2022-07-26T00:44:11.194Z,16.49
2022-07-26T00:45:11.206Z,16.42
2022-07-26T00:46:11.294Z,16.50
2022-07-26T00:47:11.169Z,16.46
2022-07-26T00:48:11.169Z,16.43
2022-07-26T00:49:11.816Z,16.35
2022-07-26T00:50:11.147Z,16.35
2022-07-26T00:51:11.142Z,16.42
2022-07-26T00:52:11.130Z,16.36
2022-07-26T00:53:11.132Z,16.26
2022-07-26T00:54:11.117Z,16.28
2022-07-26T00:55:11.109Z,16.21
2022-07-26T00:56:11.106Z,16.28
2022-07-26T00:57:11.105Z,16.24
2022-07-26T00:58:11.093Z,16.13
2022-07-26T00:59:11.615Z,16.10
2022-07-26T01:00:12.079Z,16.15
2022-07-26T01:01:11.180Z,16.09
2022-07-26T01:02:11.117Z,16.01
2022-07-26T01:03:11.060Z,16.02
2022-07-26T01:04:11.481Z,16.04
2022-07-26T01:05:11.040Z,15.94
2022-07-26T01:06:11.036Z,15.97
2022-07-26T01:07:14.833Z,15.90
2022-07-26T01:08:11.014Z,16.02
2022-07-26T01:09:11.006Z,16.05
2022-07-26T01:10:11.004Z,15.83
2022-07-26T01:11:11.000Z,15.97
2022-07-26T01:12:10.988Z,15.98
2022-07-26T01:13:10.973Z,15.91
2022-07-26T01:14:11.308Z,15.79
2022-07-26T01:15:10.980Z,15.82
2022-07-26T01:16:11.032Z,15.90
2022-07-26T01:17:10.944Z,15.92
2022-07-26T01:18:10.936Z,15.98
2022-07-26T01:19:10.938Z,15.84
2022-07-26T01:20:10.924Z,15.95
2022-07-26T01:21:13.769Z,15.84
2022-07-26T01:22:14.388Z,15.90
2022-07-26T01:23:11.897Z,15.82
2022-07-26T01:24:11.288Z,15.92
2022-07-26T01:25:10.900Z,15.98
2022-07-26T01:26:10.873Z,15.97
2022-07-26T01:27:10.868Z,15.98
2022-07-26T01:28:10.859Z,15.92
2022-07-26T01:29:11.860Z,15.97
2022-07-26T01:30:10.850Z,15.95
2022-07-26T01:31:10.914Z,16.08
2022-07-26T01:32:11.437Z,16.09
2022-07-26T01:33:10.833Z,16.09
2022-07-26T01:34:11.380Z,16.21
2022-07-26T01:35:10.810Z,16.13
2022-07-26T01:36:10.824Z,16.20
2022-07-26T01:37:10.788Z,16.26
2022-07-26T01:38:11.380Z,16.28
2022-07-26T01:39:10.787Z,16.28
2022-07-26T01:40:10.766Z,16.29
2022-07-26T01:41:10.763Z,16.39
2022-07-26T01:42:10.750Z,16.38
2022-07-26T01:43:10.744Z,16.41
2022-07-26T01:44:11.035Z,16.47
2022-07-26T01:45:10.726Z,16.53
2022-07-26T01:46:10.877Z,16.49
2022-07-26T01:47:10.715Z,16.51
2022-07-26T01:48:10.702Z,16.56
2022-07-26T01:49:10.800Z,16.56
2022-07-26T01:50:10.697Z,16.60
2022-07-26T01:51:10.683Z,16.65
2022-07-26T01:52:10.678Z,16.50
2022-07-26T01:53:10.673Z,16.61
2022-07-26T01:54:11.193Z,16.56
2022-07-26T01:55:11.370Z,16.58
2022-07-26T01:56:10.645Z,16.56
2022-07-26T01:57:10.640Z,16.61
2022-07-26T01:58:10.627Z,16.64
2022-07-26T01:59:10.622Z,16.66
2022-07-26T02:00:10.609Z,16.60
2022-07-26T02:01:10.641Z,16.56
2022-07-26T02:02:10.677Z,16.58
2022-07-26T02:03:10.667Z,16.49
2022-07-26T02:04:11.117Z,16.56
2022-07-26T02:05:10.572Z,16.58
2022-07-26T02:06:10.573Z,16.68
2022-07-26T02:07:11.766Z,16.65
2022-07-26T02:08:10.545Z,16.68
2022-07-26T02:09:11.573Z,16.76
2022-07-26T02:10:10.537Z,16.68
2022-07-26T02:11:10.527Z,16.71
2022-07-26T02:12:10.519Z,16.66
2022-07-26T02:13:10.507Z,16.72
2022-07-26T02:14:10.975Z,16.76
2022-07-26T02:15:10.502Z,16.71
2022-07-26T02:16:10.568Z,16.72
2022-07-26T02:17:10.494Z,16.84
2022-07-26T02:18:10.465Z,16.74
2022-07-26T02:19:10.459Z,16.72
2022-07-26T02:20:10.449Z,16.72
2022-07-26T02:21:10.446Z,16.72
2022-07-26T02:22:10.441Z,16.81
2022-07-26T02:23:11.429Z,16.74
2022-07-26T02:24:10.826Z,16.75
2022-07-26T02:25:10.421Z,16.74
2022-07-26T02:26:10.405Z,16.69
2022-07-26T02:27:10.403Z,16.76
2022-07-26T02:28:10.393Z,16.78
2022-07-26T02:29:10.385Z,16.87
2022-07-26T02:30:10.392Z,16.89
2022-07-26T02:31:10.455Z,16.81
2022-07-26T02:32:10.357Z,16.89
2022-07-26T02:33:10.352Z,16.94
2022-07-26T02:34:10.638Z,17.02
2022-07-26T02:35:10.341Z,16.97
2022-07-26T02:36:10.330Z,16.94
2022-07-26T02:37:10.323Z,17.01
2022-07-26T02:38:10.302Z,17.04
2022-07-26T02:39:11.313Z,17.01
2022-07-26T02:40:13.195Z,17.06
2022-07-26T02:41:11.290Z,17.12
2022-07-26T02:42:10.289Z,17.12
2022-07-26T02:43:10.281Z,17.09
2022-07-26T02:44:11.542Z,17.14
2022-07-26T02:45:10.260Z,17.11
2022-07-26T02:46:10.971Z,17.05
2022-07-26T02:47:10.245Z,17.09
2022-07-26T02:48:10.238Z,17.11
2022-07-26T02:49:10.390Z,17.12
2022-07-26T02:50:10.225Z,17.05
2022-07-26T02:51:10.264Z,17.12
2022-07-26T02:52:10.203Z,16.94
2022-07-26T02:53:10.189Z,16.89
2022-07-26T02:54:10.812Z,16.96
2022-07-26T02:55:10.175Z,16.86
2022-07-26T02:56:10.476Z,16.87
2022-07-26T02:57:10.165Z,16.71
2022-07-26T02:58:10.160Z,16.72
2022-07-26T02:59:10.141Z,16.68
2022-07-26T03:00:10.133Z,16.54
2022-07-26T03:01:10.161Z,16.54
2022-07-26T03:02:10.124Z,16.47
2022-07-26T03:03:10.158Z,16.36
2022-07-26T03:04:10.448Z,16.21
2022-07-26T03:05:10.095Z,16.29
2022-07-26T03:06:10.108Z,16.13
2022-07-26T03:07:10.077Z,16.12
2022-07-26T03:08:10.082Z,16.21
2022-07-26T03:09:10.063Z,16.21
2022-07-26T03:10:10.056Z,16.05
2022-07-26T03:11:12.181Z,16.08
2022-07-26T03:12:11.035Z,15.92
2022-07-26T03:13:10.032Z,16.04
2022-07-26T03:14:10.415Z,16.05
2022-07-26T03:15:10.013Z,16.01
2022-07-26T03:16:10.135Z,15.91
2022-07-26T03:17:10.023Z,15.91
2022-07-26T03:18:09.987Z,15.84
2022-07-26T03:19:10.004Z,15.83
2022-07-26T03:20:09.976Z,15.92
2022-07-26T03:21:09.967Z,15.95
2022-07-26T03:22:10.027Z,15.83
2022-07-26T03:23:09.950Z,15.83
2022-07-26T03:24:10.191Z,15.90
2022-07-26T03:25:09.928Z,16.01
2022-07-26T03:26:10.016Z,15.94
2022-07-26T03:27:09.941Z,15.90
2022-07-26T03:28:09.911Z,15.80
2022-07-26T03:29:10.086Z,15.91
2022-07-26T03:30:09.988Z,15.90
2022-07-26T03:31:09.948Z,15.92
2022-07-26T03:32:09.896Z,15.92
2022-07-26T03:33:09.866Z,16.00
2022-07-26T03:34:10.326Z,15.80
2022-07-26T03:35:09.852Z,15.84
2022-07-26T03:36:11.653Z,15.76
2022-07-26T03:37:10.863Z,15.86
2022-07-26T03:38:09.835Z,15.97
2022-07-26T03:39:09.834Z,15.92
2022-07-26T03:40:09.810Z,15.92
2022-07-26T03:41:12.274Z,15.90
2022-07-26T03:42:10.406Z,15.91
2022-07-26T03:43:09.793Z,15.94
2022-07-26T03:44:10.230Z,15.79
2022-07-26T03:45:09.771Z,15.83
2022-07-26T03:46:09.870Z,15.95
2022-07-26T03:47:09.758Z,15.84
2022-07-26T03:48:09.755Z,15.95
2022-07-26T03:49:14.558Z,15.84
2022-07-26T03:50:11.733Z,15.88
2022-07-26T03:51:09.747Z,15.76
2022-07-26T03:52:10.495Z,15.86
2022-07-26T03:53:09.713Z,15.80
2022-07-26T03:54:10.162Z,15.82
2022-07-26T03:55:10.542Z,15.79
2022-07-26T03:56:09.691Z,15.77
2022-07-26T03:57:09.676Z,15.80
2022-07-26T03:58:09.678Z,15.77
2022-07-26T03:59:09.667Z,15.82
2022-07-26T04:00:09.659Z,15.73
2022-07-26T04:01:09.701Z,15.73
2022-07-26T04:02:09.673Z,15.70
2022-07-26T04:03:09.635Z,15.65
2022-07-26T04:04:10.050Z,15.77
2022-07-26T04:05:09.626Z,15.82
2022-07-26T04:06:09.608Z,15.80
2022-07-26T04:07:09.608Z,15.83
2022-07-26T04:08:09.598Z,15.82
2022-07-26T04:09:09.613Z,15.80
2022-07-26T04:10:09.580Z,15.91
2022-07-26T04:11:09.592Z,16.02
2022-07-26T04:12:09.564Z,15.86
2022-07-26T04:13:09.554Z,15.80
2022-07-26T04:14:09.839Z,15.77
2022-07-26T04:15:09.536Z,15.83
2022-07-26T04:16:09.534Z,15.84
2022-07-26T04:17:09.669Z,15.90
2022-07-26T04:18:09.529Z,15.95
2022-07-26T04:19:09.517Z,16.08
2022-07-26T04:20:09.506Z,16.12
2022-07-26T04:21:09.512Z,16.26
2022-07-26T04:22:09.579Z,16.49
2022-07-26T04:23:11.103Z,16.72
2022-07-26T04:24:10.219Z,16.97
2022-07-26T04:25:09.487Z,17.23
2022-07-26T04:26:09.460Z,17.57
2022-07-26T04:27:09.454Z,17.85
2022-07-26T04:28:09.438Z,18.08
2022-07-26T04:29:09.484Z,18.44
2022-07-26T04:30:14.504Z,18.78
2022-07-26T04:31:11.519Z,19.04
2022-07-26T04:32:09.412Z,19.62
2022-07-26T04:33:09.404Z,19.86
2022-07-26T04:34:10.072Z,20.28
2022-07-26T04:35:09.443Z,20.62
2022-07-26T04:36:09.384Z,21.00
2022-07-26T04:37:09.377Z,21.24
2022-07-26T04:38:09.375Z,21.58
2022-07-26T04:39:10.355Z,21.67
2022-07-26T04:40:09.353Z,21.98
2022-07-26T04:41:09.362Z,22.23
2022-07-26T04:42:09.342Z,22.66
2022-07-26T04:43:10.142Z,22.94
2022-07-26T04:44:10.868Z,23.17
2022-07-26T04:45:10.000Z,23.39
2022-07-26T04:46:09.344Z,23.27
2022-07-26T04:47:09.303Z,22.78
2022-07-26T04:48:09.371Z,22.30
2022-07-26T04:49:09.347Z,21.89
2022-07-26T04:50:09.280Z,21.20
2022-07-26T04:51:09.268Z,21.17
2022-07-26T04:52:09.262Z,21.21
2022-07-26T04:53:09.259Z,21.12
2022-07-26T04:54:09.737Z,21.12
2022-07-26T04:55:10.004Z,21.06
2022-07-26T04:56:09.218Z,20.99
2022-07-26T04:57:10.218Z,21.22
2022-07-26T04:58:09.218Z,21.46
2022-07-26T04:59:09.209Z,21.73
2022-07-26T05:00:21.461Z,22.14
2022-07-26T05:01:11.529Z,22.32
2022-07-26T05:02:10.378Z,22.72
2022-07-26T05:03:09.239Z,22.69
2022-07-26T05:04:09.615Z,23.12
2022-07-26T05:05:09.162Z,23.37
2022-07-26T05:06:09.146Z,23.77
2022-07-26T05:07:09.143Z,24.08
2022-07-26T05:08:09.141Z,24.26
2022-07-26T05:09:09.132Z,24.33
2022-07-26T05:10:09.123Z,24.45
2022-07-26T05:11:09.115Z,24.47
2022-07-26T05:12:09.136Z,24.30
2022-07-26T05:13:09.100Z,24.40
2022-07-26T05:14:09.535Z,24.30
2022-07-26T05:15:13.525Z,24.85
2022-07-26T05:16:12.044Z,25.40
2022-07-26T05:17:10.554Z,25.83
2022-07-26T05:18:10.275Z,25.99
2022-07-26T05:19:09.062Z,26.09
2022-07-26T05:20:09.044Z,26.51
2022-07-26T05:21:09.047Z,26.70
2022-07-26T05:22:09.041Z,27.05
2022-07-26T05:23:09.031Z,26.85
2022-07-26T05:24:09.335Z,26.26
2022-07-26T05:25:09.014Z,25.88
2022-07-26T05:26:09.004Z,25.75
2022-07-26T05:27:09.944Z,26.16
2022-07-26T05:28:09.006Z,25.93
2022-07-26T05:29:08.980Z,25.81
2022-07-26T05:30:08.980Z,25.69
2022-07-26T05:31:09.059Z,25.40
2022-07-26T05:32:08.956Z,25.59
2022-07-26T05:33:08.956Z,25.54
2022-07-26T05:34:09.405Z,25.69
2022-07-26T05:35:08.936Z,25.81
2022-07-26T05:36:08.935Z,25.78
2022-07-26T05:37:08.925Z,26.03
2022-07-26T05:38:08.919Z,26.53
2022-07-26T05:39:11.666Z,27.21
2022-07-26T05:40:10.918Z,27.83
2022-07-26T05:41:08.923Z,28.30
2022-07-26T05:42:08.887Z,28.67
2022-07-26T05:43:08.887Z,28.97
2022-07-26T05:44:09.331Z,29.39
2022-07-26T05:45:08.873Z,29.73
2022-07-26T05:46:09.890Z,29.39
2022-07-26T05:47:09.853Z,29.05
2022-07-26T05:48:08.845Z,28.39
2022-07-26T05:49:08.860Z,28.10
2022-07-26T05:50:09.528Z,27.59
2022-07-26T05:51:08.834Z,27.74
2022-07-26T05:52:08.840Z,28.02
2022-07-26T05:53:08.817Z,28.59
2022-07-26T05:54:09.221Z,29.24
2022-07-26T05:55:08.813Z,29.79
2022-07-26T05:56:08.815Z,29.66
2022-07-26T05:57:08.799Z,29.81
2022-07-26T05:58:09.457Z,30.18
2022-07-26T05:59:08.779Z,30.44
2022-07-26T06:00:08.774Z,30.69
2022-07-26T06:01:08.756Z,31.06
2022-07-26T06:02:08.900Z,31.05
2022-07-26T06:03:08.750Z,31.34
2022-07-26T06:04:09.159Z,31.40
2022-07-26T06:06:15.009Z,31.56
2022-07-26T06:07:15.012Z,31.58
2022-07-26T06:08:15.014Z,31.44
2022-07-26T06:09:15.012Z,31.81
2022-07-26T06:10:14.988Z,32.12
2022-07-26T06:11:14.992Z,32.14
2022-07-26T06:12:16.100Z,32.15
2022-07-26T06:13:17.943Z,32.26
2022-07-26T06:14:16.073Z,32.15
2022-07-26T06:15:16.151Z,32.29
2022-07-26T06:16:17.051Z,32.43
2022-07-26T06:17:16.103Z,32.41
2022-07-26T06:18:16.035Z,32.29
2022-07-26T06:19:16.026Z,32.36
2022-07-26T06:20:17.949Z,32.00
2022-07-26T06:21:17.022Z,31.51
2022-07-26T06:22:16.003Z,31.39
2022-07-26T06:23:15.996Z,31.47
2022-07-26T06:24:15.987Z,31.89
2022-07-26T06:25:15.979Z,32.34
2022-07-26T06:26:15.973Z,32.07
2022-07-26T06:27:15.975Z,32.12
2022-07-26T06:28:15.964Z,32.60
2022-07-26T06:29:15.951Z,32.92
2022-07-26T06:30:15.948Z,33.08
2022-07-26T06:31:15.981Z,32.78
2022-07-26T06:32:16.026Z,32.59
2022-07-26T06:33:15.933Z,32.64
2022-07-26T06:34:15.927Z,32.63
2022-07-26T06:35:15.908Z,32.67
2022-07-26T06:36:15.905Z,32.86
2022-07-26T06:37:15.905Z,32.77
2022-07-26T06:38:15.905Z,32.93
2022-07-26T06:39:15.889Z,33.00
2022-07-26T06:40:15.885Z,33.09
2022-07-26T06:41:15.871Z,32.31
2022-07-26T06:42:15.872Z,32.56
2022-07-26T06:43:15.862Z,32.73
2022-07-26T06:44:15.849Z,32.96
2022-07-26T06:45:15.852Z,33.30
2022-07-26T06:46:16.446Z,33.76
2022-07-26T06:47:15.978Z,34.21
2022-07-26T06:48:15.826Z,34.50
2022-07-26T06:49:22.258Z,34.40
2022-07-26T06:50:17.813Z,34.23
2022-07-26T06:51:16.816Z,33.96
2022-07-26T06:52:16.387Z,34.11
2022-07-26T06:53:15.797Z,33.90
2022-07-26T06:54:15.789Z,33.71
2022-07-26T06:55:16.384Z,33.81
2022-07-26T06:56:15.775Z,33.95
2022-07-26T06:57:15.782Z,34.13
2022-07-26T06:58:15.765Z,34.02
2022-07-26T06:59:16.390Z,33.58
2022-07-26T07:00:15.758Z,33.65
2022-07-26T07:01:57.032Z,34.02
2022-07-26T07:02:16.862Z,34.27
2022-07-26T07:03:15.734Z,34.45
2022-07-26T07:04:15.741Z,34.57
2022-07-26T07:05:15.771Z,34.36
2022-07-26T07:06:15.722Z,34.29
2022-07-26T07:07:15.712Z,34.17
2022-07-26T07:08:15.700Z,33.71
2022-07-26T07:09:15.700Z,32.92
2022-07-26T07:10:15.704Z,32.90
2022-07-26T07:11:15.681Z,32.85
2022-07-26T07:12:15.684Z,32.95
2022-07-26T07:13:15.670Z,33.09
2022-07-26T07:14:15.662Z,32.95
2022-07-26T07:15:15.660Z,33.11
2022-07-26T07:16:15.692Z,32.85
2022-07-26T07:17:20.053Z,32.68
2022-07-26T07:18:17.406Z,32.53
2022-07-26T07:20:22.391Z,32.59
2022-07-26T07:21:22.428Z,32.87
2022-07-26T07:22:22.375Z,32.80
2022-07-26T07:23:22.369Z,32.59
2022-07-26T07:24:23.453Z,32.93
2022-07-26T07:25:30.401Z,32.86
2022-07-26T07:26:25.443Z,32.90
2022-07-26T07:27:23.445Z,32.59
2022-07-26T07:28:23.708Z,31.97
2022-07-26T07:29:23.424Z,32.29
2022-07-26T07:30:23.424Z,32.67
2022-07-26T07:31:30.388Z,32.93
2022-07-26T07:32:25.576Z,33.02
2022-07-26T07:33:23.447Z,32.96
2022-07-26T07:34:23.851Z,33.23
2022-07-26T07:35:23.395Z,33.23
2022-07-26T07:36:23.379Z,32.65
2022-07-26T07:37:23.375Z,32.18
2022-07-26T07:38:23.434Z,32.37
2022-07-26T07:39:23.368Z,33.05
2022-07-26T07:40:23.353Z,32.56
2022-07-26T07:41:23.352Z,32.55
2022-07-26T07:42:23.340Z,33.20
2022-07-26T07:43:23.370Z,33.90
2022-07-26T07:44:23.329Z,34.13
2022-07-26T07:45:23.321Z,34.16
2022-07-26T07:46:23.386Z,34.43
2022-07-26T07:47:23.313Z,34.51
2022-07-26T07:48:23.303Z,34.38
2022-07-26T07:49:23.893Z,33.65
2022-07-26T07:50:23.288Z,33.80
2022-07-26T07:51:24.283Z,33.62
2022-07-26T07:52:24.269Z,33.43
2022-07-26T07:53:23.266Z,33.05
2022-07-26T07:54:23.273Z,32.59
2022-07-26T07:55:41.210Z,33.09
2022-07-26T07:56:25.281Z,33.32
2022-07-26T07:57:24.247Z,33.43
2022-07-26T07:58:23.239Z,33.39
2022-07-26T07:59:23.240Z,33.62
2022-07-26T08:00:26.995Z,34.18
2022-07-26T08:01:24.019Z,34.17
2022-07-26T08:02:24.214Z,33.81
2022-07-26T08:03:23.209Z,34.25
2022-07-26T08:04:23.340Z,34.13
2022-07-26T08:05:23.195Z,34.11
2022-07-26T08:06:23.189Z,33.95
2022-07-26T08:07:23.791Z,34.30
2022-07-26T08:08:24.181Z,34.51
2022-07-26T08:10:29.959Z,34.92
2022-07-26T08:11:31.046Z,34.97
2022-07-26T08:12:31.043Z,34.77
2022-07-26T08:13:31.047Z,34.05
2022-07-26T08:14:32.897Z,33.45
2022-07-26T08:15:31.029Z,33.53
2022-07-26T08:16:31.135Z,33.37
2022-07-26T08:17:31.014Z,33.62
2022-07-26T08:18:31.829Z,33.20
2022-07-26T08:19:41.566Z,33.20
2022-07-26T08:20:32.001Z,33.37
2022-07-26T08:21:30.985Z,33.83
2022-07-26T08:22:31.908Z,34.20
2022-07-26T08:24:36.972Z,35.04
2022-07-26T08:25:42.590Z,35.18
2022-07-26T08:26:39.616Z,35.45
2022-07-26T08:27:41.104Z,35.74
2022-07-26T08:28:47.943Z,35.79
2022-07-26T08:29:40.037Z,35.27
2022-07-26T08:30:38.028Z,34.70
2022-07-26T08:31:38.108Z,34.78
2022-07-26T08:32:38.018Z,34.71
2022-07-26T08:33:39.388Z,34.64
2022-07-26T08:34:38.001Z,34.85
2022-07-26T08:35:37.999Z,34.27
2022-07-26T08:36:49.580Z,34.57
2022-07-26T08:37:39.978Z,34.52
2022-07-26T08:38:37.984Z,34.93
2022-07-26T08:39:37.985Z,34.70
2022-07-26T08:40:37.963Z,34.23
2022-07-26T08:41:37.966Z,34.02
2022-07-26T08:42:37.948Z,34.16
2022-07-26T08:43:52.028Z,34.06
2022-07-26T08:44:38.976Z,33.81
2022-07-26T08:45:37.929Z,34.18
2022-07-26T08:46:37.952Z,34.40
2022-07-26T08:47:50.289Z,34.25
2022-07-26T08:48:39.953Z,34.03
2022-07-26T08:49:37.943Z,33.81
2022-07-26T08:50:37.901Z,33.02
2022-07-26T08:51:37.892Z,32.16
2022-07-26T08:52:37.885Z,31.76
2022-07-26T08:53:37.878Z,31.42
2022-07-26T08:54:37.878Z,31.51
2022-07-26T08:56:04.299Z,31.17
2022-07-26T08:56:39.863Z,30.92
2022-07-26T08:57:37.862Z,30.85
2022-07-26T08:58:38.720Z,30.61
2022-07-26T08:59:37.856Z,30.31
2022-07-26T09:00:37.913Z,30.24
2022-07-26T09:01:37.827Z,30.50
2022-07-26T09:02:37.831Z,30.47
2022-07-26T09:03:38.749Z,30.21
2022-07-26T09:04:43.850Z,29.88
2022-07-26T09:05:39.804Z,29.61
2022-07-26T09:06:39.725Z,29.41
2022-07-26T09:07:37.791Z,29.35
2022-07-26T09:08:37.791Z,29.36
2022-07-26T09:09:38.645Z,29.36
2022-07-26T09:10:39.365Z,29.27
2022-07-26T09:11:38.759Z,29.36
2022-07-26T09:12:37.756Z,29.47
2022-07-26T09:13:37.741Z,29.35
2022-07-26T09:14:37.739Z,29.29
2022-07-26T09:15:37.757Z,28.91
2022-07-26T09:16:40.039Z,28.38
2022-07-26T09:17:38.717Z,28.38
2022-07-26T09:18:39.249Z,28.04
2022-07-26T09:19:37.708Z,27.70
2022-07-26T09:20:39.234Z,27.52
2022-07-26T09:21:37.683Z,27.37
2022-07-26T09:22:37.673Z,27.29
2022-07-26T09:23:37.671Z,27.03
2022-07-26T09:24:37.665Z,26.70
2022-07-26T09:25:37.675Z,26.16
2022-07-26T09:26:38.231Z,25.95
2022-07-26T09:27:37.639Z,25.72
2022-07-26T09:28:37.633Z,25.40
2022-07-26T09:29:38.651Z,25.18
2022-07-26T09:30:37.616Z,25.03
2022-07-26T09:31:37.733Z,24.88
2022-07-26T09:32:37.636Z,24.66
2022-07-26T09:33:37.594Z,24.65
2022-07-26T09:34:37.600Z,24.63
2022-07-26T09:35:50.364Z,24.57
2022-07-26T09:36:39.572Z,24.51
2022-07-26T09:37:37.566Z,24.51
2022-07-26T09:38:37.554Z,24.85
2022-07-26T09:39:37.553Z,24.93
2022-07-26T09:40:37.558Z,25.21
2022-07-26T09:41:37.546Z,25.41
2022-07-26T09:42:37.525Z,25.40
2022-07-26T09:43:37.519Z,25.46
2022-07-26T09:44:37.512Z,25.31
2022-07-26T09:45:38.507Z,25.41
2022-07-26T09:46:37.530Z,25.48
2022-07-26T09:47:37.488Z,25.55
2022-07-26T09:49:07.169Z,25.75
2022-07-26T09:49:40.883Z,25.87
2022-07-26T09:50:37.472Z,25.84
2022-07-26T09:51:37.464Z,25.81
2022-07-26T09:52:37.464Z,25.99
2022-07-26T09:53:37.445Z,26.09
2022-07-26T09:54:37.441Z,26.00
2022-07-26T09:55:44.682Z,25.96
2022-07-26T09:56:39.419Z,25.93
2022-07-26T09:57:37.416Z,25.59
2022-07-26T09:58:38.244Z,25.11
2022-07-26T09:59:37.398Z,24.96
2022-07-26T10:00:37.406Z,25.03
2022-07-26T10:01:37.403Z,24.93
2022-07-26T10:02:38.234Z,24.95
2022-07-26T10:03:37.376Z,24.88
2022-07-26T10:04:37.361Z,24.85
2022-07-26T10:05:37.780Z,24.85
2022-07-26T10:06:37.346Z,24.70
2022-07-26T10:07:37.337Z,24.78
2022-07-26T10:08:37.342Z,24.73
2022-07-26T10:09:37.318Z,24.68
2022-07-26T10:10:37.312Z,24.89
2022-07-26T10:11:37.302Z,25.23
2022-07-26T10:12:37.314Z,25.38
2022-07-26T10:13:37.293Z,25.41
2022-07-26T10:14:37.293Z,25.13
2022-07-26T10:15:37.359Z,25.03
2022-07-26T10:16:39.273Z,24.69
2022-07-26T10:17:37.255Z,24.65
2022-07-26T10:18:38.271Z,24.55
2022-07-26T10:19:41.217Z,24.29
2022-07-26T10:20:40.198Z,24.18
2022-07-26T10:21:37.233Z,24.21
2022-07-26T10:22:37.245Z,24.20
2022-07-26T10:23:37.214Z,24.13
2022-07-26T10:24:37.212Z,23.98
2022-07-26T10:25:37.198Z,24.03
2022-07-26T10:26:37.198Z,24.10
2022-07-26T10:27:37.186Z,24.20
2022-07-26T10:28:37.183Z,24.16
2022-07-26T10:29:37.182Z,24.26
2022-07-26T10:30:37.160Z,24.35
2022-07-26T10:31:37.211Z,24.30
2022-07-26T10:32:37.157Z,24.32
2022-07-26T10:33:37.139Z,24.32
2022-07-26T10:34:37.143Z,24.38
2022-07-26T10:35:37.145Z,24.33
2022-07-26T10:36:37.131Z,24.38
2022-07-26T10:37:37.130Z,24.54
2022-07-26T10:38:38.688Z,24.47
2022-07-26T10:39:37.095Z,24.58
2022-07-26T10:40:37.094Z,24.40
2022-07-26T10:41:37.087Z,24.28
2022-07-26T10:42:37.073Z,24.14
2022-07-26T10:43:41.779Z,23.98
2022-07-26T10:44:39.061Z,23.86
2022-07-26T10:45:37.092Z,23.76
2022-07-26T10:46:37.099Z,23.84
2022-07-26T10:47:37.032Z,23.95
2022-07-26T10:48:37.750Z,23.88
2022-07-26T10:49:37.033Z,23.98
2022-07-26T10:50:37.028Z,23.87
2022-07-26T10:51:37.004Z,23.84
2022-07-26T10:52:36.999Z,23.92
2022-07-26T10:53:36.993Z,24.01
2022-07-26T10:54:36.977Z,24.17
2022-07-26T10:55:36.984Z,24.24
2022-07-26T10:56:36.962Z,24.42
2022-07-26T10:57:36.954Z,24.58
2022-07-26T10:58:36.946Z,24.70
2022-07-26T10:59:55.228Z,24.77
2022-07-26T11:00:38.939Z,24.73
2022-07-26T11:01:37.050Z,24.86
2022-07-26T11:02:36.989Z,24.78
2022-07-26T11:03:38.930Z,24.89
2022-07-26T11:04:37.899Z,24.89
2022-07-26T11:05:36.893Z,24.85
2022-07-26T11:06:36.911Z,24.68
2022-07-26T11:07:36.869Z,24.65
2022-07-26T11:08:36.865Z,24.74
2022-07-26T11:09:36.862Z,24.81
2022-07-26T11:10:36.854Z,24.86
2022-07-26T11:11:36.858Z,25.04
2022-07-26T11:12:36.845Z,25.07
2022-07-26T11:13:36.823Z,25.22
2022-07-26T11:14:36.824Z,25.18
2022-07-26T11:15:36.876Z,25.25
2022-07-26T11:16:36.808Z,25.36
2022-07-26T11:17:36.789Z,25.41
2022-07-26T11:18:36.785Z,25.36
2022-07-26T11:19:36.776Z,25.43
2022-07-26T11:20:36.779Z,25.36
2022-07-26T11:21:36.768Z,25.51
2022-07-26T11:22:36.763Z,25.70
2022-07-26T11:23:36.747Z,25.83
2022-07-26T11:24:36.743Z,25.69
2022-07-26T11:25:36.737Z,25.75
2022-07-26T11:26:36.725Z,25.90
2022-07-26T11:27:36.726Z,25.91
2022-07-26T11:28:36.709Z,25.87
2022-07-26T11:29:39.195Z,25.99
2022-07-26T11:30:36.694Z,25.98
2022-07-26T11:31:51.983Z,25.91
2022-07-26T11:32:39.130Z,25.91
2022-07-26T11:33:36.670Z,25.59
2022-07-26T11:34:37.219Z,25.58
2022-07-26T11:35:36.657Z,25.68
2022-07-26T11:36:36.650Z,25.65
2022-07-26T11:37:36.649Z,25.66
2022-07-26T11:38:36.638Z,25.68
2022-07-26T11:39:36.630Z,25.77
2022-07-26T11:40:36.625Z,25.83
2022-07-26T11:41:36.609Z,25.83
2022-07-26T11:42:36.645Z,25.69
2022-07-26T11:43:36.592Z,25.77
2022-07-26T11:44:37.296Z,25.63
2022-07-26T11:45:36.582Z,25.77
2022-07-26T11:46:36.661Z,25.78
2022-07-26T11:47:36.579Z,25.78
2022-07-26T11:48:36.588Z,25.83
2022-07-26T11:49:52.781Z,25.84
2022-07-26T11:50:38.548Z,25.84
2022-07-26T11:51:36.538Z,25.93
2022-07-26T11:52:36.529Z,25.98
2022-07-26T11:53:36.532Z,25.95
2022-07-26T11:54:36.655Z,25.99
2022-07-26T11:55:36.516Z,26.05
2022-07-26T11:56:36.501Z,25.96
2022-07-26T11:57:37.298Z,25.80
2022-07-26T11:58:36.512Z,25.72
2022-07-26T11:59:36.519Z,25.66
2022-07-26T12:00:36.469Z,25.88
2022-07-26T12:01:36.454Z,25.93
2022-07-26T12:02:36.448Z,26.07
2022-07-26T12:03:36.493Z,25.99
2022-07-26T12:04:36.508Z,26.02
2022-07-26T12:05:36.456Z,25.90
2022-07-26T12:06:36.417Z,25.83
2022-07-26T12:07:36.415Z,25.91
2022-07-26T12:08:36.402Z,25.87
2022-07-26T12:09:36.414Z,25.93
2022-07-26T12:10:36.392Z,25.99
2022-07-26T12:11:36.381Z,26.18
2022-07-26T12:12:36.384Z,26.16
2022-07-26T12:13:39.926Z,26.34
2022-07-26T12:14:37.365Z,26.66
2022-07-26T12:15:36.399Z,26.65
2022-07-26T12:16:36.346Z,26.77
2022-07-26T12:17:36.338Z,26.63
2022-07-26T12:18:36.335Z,26.51
2022-07-26T12:19:36.323Z,26.73
2022-07-26T12:20:36.343Z,26.55
2022-07-26T12:21:36.306Z,26.33
2022-07-26T12:22:36.913Z,26.19
2022-07-26T12:23:36.303Z,26.00
2022-07-26T12:24:36.297Z,25.98
2022-07-26T12:25:36.287Z,25.90
2022-07-26T12:26:36.273Z,25.91
2022-07-26T12:27:36.812Z,26.00
2022-07-26T12:28:36.263Z,26.09
2022-07-26T12:29:36.248Z,26.40
2022-07-26T12:30:36.303Z,26.63
2022-07-26T12:31:36.282Z,26.62
2022-07-26T12:32:36.225Z,26.41
2022-07-26T12:33:36.327Z,26.40
2022-07-26T12:34:36.212Z,26.22
2022-07-26T12:35:36.215Z,25.98
2022-07-26T12:36:36.211Z,25.91
2022-07-26T12:37:40.573Z,26.02
2022-07-26T12:38:37.198Z,26.03
2022-07-26T12:39:36.174Z,25.93
2022-07-26T12:40:36.187Z,25.98
2022-07-26T12:41:36.190Z,25.98
2022-07-26T12:42:36.159Z,25.83
2022-07-26T12:43:36.160Z,25.65
2022-07-26T12:44:36.142Z,25.50
2022-07-26T12:45:36.133Z,25.44
2022-07-26T12:46:36.428Z,25.31
2022-07-26T12:47:36.113Z,25.48
2022-07-26T12:48:36.140Z,25.48
2022-07-26T12:49:36.116Z,25.41
2022-07-26T12:50:36.827Z,25.54
2022-07-26T12:51:36.087Z,25.55
2022-07-26T12:52:36.084Z,25.70
2022-07-26T12:53:36.075Z,25.72
2022-07-26T12:54:36.821Z,25.83
2022-07-26T12:55:36.059Z,25.95
2022-07-26T12:56:36.895Z,25.93
2022-07-26T12:57:36.827Z,25.98